Huntington Beach, CA

3:55 PM PDT on October 31, 2014 (GMT -0700)
MesoWest Huntington Beach CA US SGXWFO | Change Station
CLOSE
Current Station
Personal Weather Station
Location: Huntington Beach, CA
Elevation: 4 ft
Nearby Weather Stations

Elev 4 ft 33.71 °N, 118.03 °W | Updated 418 days ago

Rain
Rain
68 °F
Feels Like 68 °F
N
9
Wind Variable Wind from SSW
Gusts 14 mph

Today
High -- | Low -- °F
--% Chance of Precip.
Yesterday
High -- | Low -- °F
Precip. -- in
7:10 AM 6:00 PM
First Quarter, 59% visible
Pressure 29.89 in
Visibility 10.0 miles
Clouds Mostly Cloudy 3700 ft
Overcast 5500 ft
Dew Point 59 °F
Humidity 74%
Rainfall -999.00 in
Snow Depth Not available.
UV 1 out of 12
Pollen 3.10 out of 12
Air Quality Not available.
Flu Activity Not available.
METAR KSLI 312158Z 22005KT 10SM BKN037 OVC055 22/14 A2988 RMK AO2A SLP121 T02150137

More Conditions Fewer Conditions

Pressure 29.89 in
Visibility 10.0 miles
Clouds Mostly Cloudy 3700 ft
Overcast 5500 ft
Dew Point 59 °F
Humidity 74%
Rainfall -999.00 in
Snow Depth Not available.
UV 1 out of 12
Pollen 3.10 out of 12
Air Quality Not available.
Flu Activity Not available.
METAR KSLI 312158Z 22005KT 10SM BKN037 OVC055 22/14 A2988 RMK AO2A SLP121 T02150137

More Conditions Fewer Conditions

10-Day Weather Forecast

Almanac

Astronomy

Oct. 31, 2014 Rise Set
Actual Time
Civil Twilight
Nautical Twilight
Astronomical Twilight
Moon
Length of Visible Light
Length of Day
Tomorrow will be .
, % of the Moon is Illuminated

Today's Extremes

State Highs State Lows

Community

WunderPhotos

Upload Photos

1,766,770 photos uploaded!

WunderBlogs® & News

Nearby

Air Quality

  Air Quality AQ Index Pollutant
Not available.

Snow Depth

Station Depth Elevation

Earthquake Activity

City Distance Mag. Time & Date
Minimum magnitude displayed is 2.5.

Coastal Water Temperatures

Place Temperature

Nearby Weather Stations